Time;durP1;ratioP1;P1;durP2;ratioP2;P2;SDS_P1;SDS_P2;PMS_P1;PMS_P2;Temp;Humidity;BMP_temperature;BMP_pressure;BME280_temperature;BME280_humidity;BME280_pressure;Samples;Min_cycle;Max_cycle;Signal;HPM_P1;HPM_P2
2022/12/08 00:01:34;;;;;;;8.30;6.70;;;3.00;99.90;;;;;;5093394;28;20452;-76
2022/12/08 00:04:04;;;;;;;9.00;7.20;;;3.00;99.90;;;;;;5093028;28;20456;-77
2022/12/08 00:09:24;;;;;;;8.67;6.80;;;3.00;99.90;;;;;;5095851;28;20439;-76
2022/12/08 00:11:55;;;;;;;10.33;7.23;;;3.00;99.90;;;;;;5096070;28;20443;-76
2022/12/08 00:14:25;;;;;;;10.80;7.03;;;3.00;99.90;;;;;;5095968;28;20467;-77
2022/12/08 00:16:54;;;;;;;7.50;6.70;;;2.90;99.90;;;;;;5097241;28;20447;-76
2022/12/08 00:19:23;;;;;;;11.13;7.13;;;2.90;99.90;;;;;;5095592;28;20966;-76
2022/12/08 00:21:53;;;;;;;18.17;7.13;;;2.90;99.90;;;;;;5096678;28;20542;-76
2022/12/08 00:24:22;;;;;;;9.83;7.13;;;2.90;99.90;;;;;;5096782;28;20454;-76
2022/12/08 00:26:50;;;;;;;14.20;6.90;;;2.90;99.90;;;;;;5096931;28;20443;-77
2022/12/08 00:29:19;;;;;;;9.97;8.23;;;2.90;99.90;;;;;;5095436;28;20436;-76
2022/12/08 00:31:47;;;;;;;11.20;10.00;;;2.90;99.90;;;;;;5099040;28;20517;-76
2022/12/08 00:34:16;;;;;;;10.87;9.73;;;2.90;99.90;;;;;;5096029;28;20460;-76
2022/12/08 00:36:44;;;;;;;12.10;9.93;;;2.90;99.90;;;;;;5095236;28;20456;-76
2022/12/08 00:39:15;;;;;;;11.73;10.50;;;2.90;99.90;;;;;;5095203;28;20961;-76
2022/12/08 00:44:29;;;;;;;12.33;10.37;;;2.90;99.90;;;;;;5095081;28;20474;-76
2022/12/08 00:46:57;;;;;;;12.03;9.13;;;2.90;99.90;;;;;;5096332;28;20436;-76
2022/12/08 00:49:25;;;;;;;12.47;10.33;;;2.90;99.90;;;;;;5096285;28;20483;-76
2022/12/08 00:51:54;;;;;;;10.57;9.30;;;2.90;99.90;;;;;;5096549;28;20449;-77
2022/12/08 00:54:23;;;;;;;13.20;10.40;;;2.90;99.90;;;;;;5096139;28;21025;-76
2022/12/08 00:56:52;;;;;;;11.20;9.73;;;2.90;99.90;;;;;;5094843;28;20521;-77
2022/12/08 00:59:20;;;;;;;11.43;9.67;;;2.90;99.90;;;;;;5094787;28;20968;-77
2022/12/08 01:01:48;;;;;;;10.00;9.07;;;2.80;99.90;;;;;;5095990;28;20523;-76
2022/12/08 01:04:18;;;;;;;10.50;8.20;;;2.90;99.90;;;;;;5094931;28;20468;-76
2022/12/08 01:06:47;;;;;;;12.20;8.43;;;2.90;99.90;;;;;;5094713;28;20455;-76
2022/12/08 01:09:19;;;;;;;14.43;8.50;;;2.90;99.90;;;;;;5095983;28;20445;-76
2022/12/08 01:11:49;;;;;;;10.87;7.60;;;2.90;99.90;;;;;;5095750;28;20783;-76
2022/12/08 01:14:17;;;;;;;9.50;8.10;;;2.80;99.90;;;;;;5095785;28;20444;-76
2022/12/08 01:16:45;;;;;;;9.17;8.27;;;2.80;99.90;;;;;;5096111;28;20468;-76
2022/12/08 01:19:16;;;;;;;10.20;8.00;;;2.90;99.90;;;;;;5093387;28;20480;-76
2022/12/08 01:21:45;;;;;;;10.63;8.00;;;2.90;99.90;;;;;;5097262;28;20878;-77
2022/12/08 01:24:15;;;;;;;11.73;8.03;;;2.90;99.90;;;;;;5095828;28;20888;-76
2022/12/08 01:26:45;;;;;;;10.53;7.90;;;2.90;99.90;;;;;;5094405;28;20436;-77
2022/12/08 01:29:14;;;;;;;9.40;7.50;;;3.00;99.90;;;;;;5094298;28;20445;-77
2022/12/08 01:31:43;;;;;;;9.20;7.80;;;2.90;99.90;;;;;;5094481;28;20928;-77
2022/12/08 01:34:12;;;;;;;10.70;7.77;;;2.90;99.90;;;;;;5095704;28;20863;-76
2022/12/08 01:36:41;;;;;;;8.67;7.53;;;3.00;99.90;;;;;;5095378;28;20535;-76
2022/12/08 01:39:17;;;;;;;8.20;7.40;;;3.00;99.90;;;;;;5095287;28;20458;-76
2022/12/08 01:41:47;;;;;;;7.67;6.87;;;3.00;99.90;;;;;;5093956;28;20460;-76
2022/12/08 01:44:54;;;;;;;10.80;7.07;;;3.00;99.90;;;;;;5095190;28;20448;-76
2022/12/08 01:47:24;;;;;;;9.30;7.00;;;3.00;99.90;;;;;;5095511;28;20898;-77
2022/12/08 01:49:53;;;;;;;10.80;8.50;;;3.00;99.90;;;;;;5093830;28;20428;-76
2022/12/08 01:52:26;;;;;;;9.20;7.63;;;3.00;99.90;;;;;;5095358;28;20463;-76
2022/12/08 01:54:58;;;;;;;8.83;6.80;;;3.00;99.90;;;;;;5095030;28;20464;-76
2022/12/08 01:57:30;;;;;;;8.33;7.17;;;3.00;99.90;;;;;;5095380;28;20484;-77
2022/12/08 02:00:05;;;;;;;9.97;7.20;;;3.00;99.90;;;;;;5094902;28;20446;-76
2022/12/08 02:02:41;;;;;;;8.93;6.40;;;3.00;99.90;;;;;;5095199;28;20495;-77
2022/12/08 02:05:11;;;;;;;8.47;7.17;;;3.00;99.90;;;;;;5094996;28;21013;-76
2022/12/08 02:07:40;;;;;;;11.10;7.83;;;3.10;99.90;;;;;;5093648;28;20957;-77
2022/12/08 02:10:10;;;;;;;8.13;7.33;;;3.10;99.90;;;;;;5094947;28;20996;-77
2022/12/08 02:12:38;;;;;;;9.00;7.23;;;3.10;99.90;;;;;;5112347;28;20442;-77
2022/12/08 02:15:08;;;;;;;10.13;7.30;;;3.10;99.90;;;;;;5114079;28;20477;-77
2022/12/08 02:17:50;;;;;;;7.57;6.77;;;3.10;99.90;;;;;;5115247;28;20425;-77
2022/12/08 02:20:37;;;;;;;8.97;7.20;;;3.10;99.90;;;;;;5115010;28;20421;-77
2022/12/08 02:23:15;;;;;;;10.43;7.07;;;3.20;99.90;;;;;;5115242;28;20854;-77
2022/12/08 02:26:02;;;;;;;7.77;6.00;;;3.20;99.90;;;;;;5114064;28;20545;-77
2022/12/08 02:28:54;;;;;;;15.40;6.90;;;3.20;99.90;;;;;;5115575;28;20899;-77
2022/12/08 02:31:36;;;;;;;12.53;6.10;;;3.20;99.90;;;;;;5114738;28;20438;-78
2022/12/08 02:34:18;;;;;;;7.57;6.00;;;3.10;99.90;;;;;;5113895;28;20482;-77
2022/12/08 02:36:54;;;;;;;8.83;6.40;;;3.20;99.90;;;;;;5114919;28;20829;-77
2022/12/08 02:39:28;;;;;;;9.80;6.03;;;3.20;99.90;;;;;;5113886;28;20441;-78
2022/12/08 02:42:06;;;;;;;10.63;6.27;;;3.20;99.90;;;;;;5113400;28;20464;-77
2022/12/08 02:44:39;;;;;;;9.07;6.40;;;3.20;99.90;;;;;;5114844;28;20454;-77
2022/12/08 02:47:11;;;;;;;9.13;6.60;;;3.20;99.90;;;;;;5113264;28;20951;-77
2022/12/08 02:49:41;;;;;;;11.67;6.70;;;3.20;99.90;;;;;;5113246;28;20440;-77
2022/12/08 02:52:40;;;;;;;9.87;5.57;;;3.20;99.90;;;;;;5113159;28;20541;-77
2022/12/08 02:55:15;;;;;;;9.37;6.40;;;3.20;99.90;;;;;;5113118;28;20996;-77
2022/12/08 02:57:56;;;;;;;8.23;6.43;;;3.20;99.90;;;;;;5114826;28;20416;-77
2022/12/08 03:00:27;;;;;;;11.30;6.40;;;3.20;99.90;;;;;;5111279;28;20976;-77
2022/12/08 03:03:08;;;;;;;8.10;5.80;;;3.20;99.90;;;;;;5093847;28;20468;-77
2022/12/08 03:05:55;;;;;;;8.37;5.97;;;3.20;99.90;;;;;;5092442;28;20466;-77
2022/12/08 03:08:32;;;;;;;8.67;6.07;;;3.30;99.90;;;;;;5092473;28;20480;-78
2022/12/08 03:11:04;;;;;;;6.63;5.37;;;3.30;99.90;;;;;;5094502;28;20432;-77
2022/12/08 03:13:38;;;;;;;7.90;5.70;;;3.30;99.90;;;;;;5097369;28;20951;-78
2022/12/08 03:16:09;;;;;;;8.47;5.00;;;3.30;99.90;;;;;;5097838;28;20432;-77
2022/12/08 03:18:43;;;;;;;6.37;4.47;;;3.30;99.90;;;;;;5095988;28;20420;-78
2022/12/08 03:21:15;;;;;;;7.37;5.20;;;3.30;99.90;;;;;;5094233;28;20455;-77
2022/12/08 03:23:46;;;;;;;7.53;4.50;;;3.30;99.90;;;;;;5095807;28;20470;-77
2022/12/08 03:26:19;;;;;;;7.37;5.60;;;3.30;99.90;;;;;;5095378;28;20780;-78
2022/12/08 03:28:47;;;;;;;7.07;4.50;;;3.30;99.90;;;;;;5093435;28;20452;-77
2022/12/08 03:31:18;;;;;;;6.70;4.40;;;3.30;99.90;;;;;;5094513;28;20521;-77
2022/12/08 03:33:51;;;;;;;4.90;4.07;;;3.30;99.90;;;;;;5094351;28;20455;-77
2022/12/08 03:36:21;;;;;;;5.17;4.20;;;3.30;99.90;;;;;;5093019;28;20543;-78
2022/12/08 03:38:52;;;;;;;5.57;4.47;;;3.30;99.90;;;;;;5092863;28;20963;-77
2022/12/08 03:41:21;;;;;;;7.27;4.70;;;3.30;99.90;;;;;;5092484;28;20447;-78
2022/12/08 03:43:50;;;;;;;6.30;4.67;;;3.30;99.90;;;;;;5096281;28;20471;-78
2022/12/08 03:46:20;;;;;;;7.00;4.80;;;3.30;99.90;;;;;;5097213;28;20789;-78
2022/12/08 03:48:50;;;;;;;8.70;5.23;;;3.30;99.90;;;;;;5096808;28;20947;-78
2022/12/08 03:51:20;;;;;;;7.63;5.33;;;3.30;99.90;;;;;;5100399;28;20522;-78
2022/12/08 03:53:49;;;;;;;6.90;4.77;;;3.30;99.90;;;;;;5098085;28;20525;-78
2022/12/08 03:56:22;;;;;;;7.13;4.83;;;3.30;99.90;;;;;;5098110;28;20448;-78
2022/12/08 03:58:50;;;;;;;6.30;5.10;;;3.30;99.90;;;;;;5098205;28;20421;-78
2022/12/08 04:01:18;;;;;;;6.47;5.10;;;3.30;99.90;;;;;;5096280;28;20462;-77
2022/12/08 04:03:47;;;;;;;10.70;5.33;;;3.30;99.90;;;;;;5096198;28;20484;-78
2022/12/08 04:06:16;;;;;;;5.47;4.67;;;3.30;99.90;;;;;;5096174;28;20953;-78
2022/12/08 04:08:46;;;;;;;6.33;4.60;;;3.30;99.90;;;;;;5096289;28;20448;-78
2022/12/08 04:11:14;;;;;;;7.50;5.43;;;3.30;99.90;;;;;;5097599;28;20789;-78
2022/12/08 04:13:43;;;;;;;6.13;5.13;;;3.30;99.90;;;;;;5097325;28;20456;-78
2022/12/08 04:16:15;;;;;;;8.60;5.20;;;3.20;99.90;;;;;;5095946;28;20505;-78
2022/12/08 04:18:44;;;;;;;6.17;5.47;;;3.30;99.90;;;;;;5097691;28;20430;-78
2022/12/08 04:21:12;;;;;;;6.40;5.37;;;3.30;99.90;;;;;;5095930;28;20976;-78
2022/12/08 04:23:41;;;;;;;9.57;5.60;;;3.20;99.90;;;;;;5097198;28;20478;-77
2022/12/08 04:26:11;;;;;;;8.50;5.90;;;3.30;99.90;;;;;;5095655;28;20853;-78
2022/12/08 04:28:39;;;;;;;9.10;5.73;;;3.30;99.90;;;;;;5095554;28;20438;-77
2022/12/08 04:31:07;;;;;;;7.43;6.73;;;3.30;99.90;;;;;;5096978;28;20438;-78
2022/12/08 04:33:35;;;;;;;8.50;6.30;;;3.30;99.90;;;;;;5095448;28;20455;-77
2022/12/08 04:36:05;;;;;;;6.17;5.50;;;3.30;99.90;;;;;;5097079;28;20432;-78
2022/12/08 04:38:33;;;;;;;6.30;5.70;;;3.30;99.90;;;;;;5096657;28;20448;-78
2022/12/08 04:41:01;;;;;;;7.87;5.77;;;3.30;99.90;;;;;;5099090;28;20451;-77
2022/12/08 04:43:31;;;;;;;6.37;5.77;;;3.30;99.90;;;;;;5115631;28;20470;-78
2022/12/08 04:45:59;;;;;;;6.47;5.50;;;3.30;99.90;;;;;;5115584;28;20984;-77
2022/12/08 04:48:27;;;;;;;7.50;5.97;;;3.30;99.90;;;;;;5117067;28;20431;-77
2022/12/08 04:50:55;;;;;;;7.47;6.50;;;3.30;99.90;;;;;;5115672;28;20443;-78
2022/12/08 04:53:25;;;;;;;6.80;6.20;;;3.30;99.90;;;;;;5115734;28;20447;-77
2022/12/08 04:55:54;;;;;;;7.30;5.80;;;3.30;99.90;;;;;;5117524;28;20765;-77
2022/12/08 04:58:22;;;;;;;8.83;6.57;;;3.30;99.90;;;;;;5115523;28;20447;-77
2022/12/08 05:00:52;;;;;;;7.90;6.60;;;3.30;99.90;;;;;;5115710;28;20521;-78
2022/12/08 05:03:20;;;;;;;8.70;7.27;;;3.30;99.90;;;;;;5115297;28;20467;-77
2022/12/08 05:05:55;;;;;;;9.10;7.07;;;3.30;99.90;;;;;;5116631;28;20911;-77
2022/12/08 05:08:23;;;;;;;8.27;7.47;;;3.30;99.90;;;;;;5115202;28;20528;-77
2022/12/08 05:10:52;;;;;;;8.30;7.13;;;3.30;99.90;;;;;;5116415;28;20441;-77
2022/12/08 05:13:20;;;;;;;8.53;7.73;;;3.30;99.90;;;;;;5116436;28;20435;-77
2022/12/08 05:15:48;;;;;;;7.97;7.27;;;3.30;99.90;;;;;;5115037;28;20956;-77
2022/12/08 05:18:17;;;;;;;7.73;7.00;;;3.30;99.90;;;;;;5116887;28;20435;-77
2022/12/08 05:20:45;;;;;;;7.43;6.83;;;3.30;99.90;;;;;;5116411;28;20439;-77
2022/12/08 05:23:13;;;;;;;8.00;7.30;;;3.30;99.90;;;;;;5116119;28;21002;-77
2022/12/08 05:25:41;;;;;;;9.70;7.40;;;3.30;99.90;;;;;;5116368;28;20515;-77
2022/12/08 05:28:10;;;;;;;7.30;6.70;;;3.30;99.90;;;;;;5116227;28;20511;-78
2022/12/08 05:30:58;;;;;;;8.50;7.60;;;3.30;99.90;;;;;;5110793;28;20444;-77
2022/12/08 05:33:27;;;;;;;7.87;7.07;;;3.30;99.90;;;;;;5095639;28;20440;-77
2022/12/08 05:35:55;;;;;;;8.33;7.40;;;3.30;99.90;;;;;;5095505;28;20489;-77
2022/12/08 05:38:23;;;;;;;8.83;8.03;;;3.30;99.90;;;;;;5095420;28;20997;-77
2022/12/08 05:40:51;;;;;;;8.90;8.10;;;3.30;99.90;;;;;;5095583;28;20428;-77
2022/12/08 05:43:19;;;;;;;8.87;7.97;;;3.30;99.90;;;;;;5095338;28;20467;-77
2022/12/08 05:45:48;;;;;;;8.17;7.37;;;3.30;99.90;;;;;;5095454;28;20805;-78
2022/12/08 05:48:16;;;;;;;9.53;8.57;;;3.30;99.90;;;;;;5095375;28;20479;-77
2022/12/08 05:50:48;;;;;;;9.00;8.20;;;3.30;99.90;;;;;;5095352;28;20435;-77
2022/12/08 05:53:16;;;;;;;9.60;8.80;;;3.30;99.90;;;;;;5093916;28;20446;-77
2022/12/08 05:55:45;;;;;;;9.97;9.00;;;3.30;99.90;;;;;;5093730;28;20463;-77
2022/12/08 05:58:15;;;;;;;8.87;7.80;;;3.30;99.90;;;;;;5093739;28;20460;-77
2022/12/08 06:00:43;;;;;;;8.90;8.00;;;3.30;99.90;;;;;;5093907;28;20463;-77
2022/12/08 06:03:12;;;;;;;9.23;8.33;;;3.30;99.90;;;;;;5093822;28;20831;-77
2022/12/08 06:05:41;;;;;;;8.63;7.83;;;3.30;99.90;;;;;;5094298;28;20455;-77
2022/12/08 06:08:11;;;;;;;9.40;8.50;;;3.30;99.90;;;;;;5095209;28;20455;-76
2022/12/08 06:10:40;;;;;;;8.53;7.70;;;3.30;99.90;;;;;;5095343;28;20412;-76
2022/12/08 06:13:08;;;;;;;8.97;8.07;;;3.30;99.90;;;;;;5095122;28;20435;-77
2022/12/08 06:15:37;;;;;;;8.20;7.50;;;3.30;99.90;;;;;;5093536;28;20460;-77
2022/12/08 06:18:06;;;;;;;7.90;6.70;;;3.30;99.90;;;;;;5093446;28;20495;-77
2022/12/08 06:20:34;;;;;;;8.20;7.40;;;3.30;99.90;;;;;;5097042;28;20451;-77
2022/12/08 06:23:03;;;;;;;6.50;5.70;;;3.30;99.90;;;;;;5094699;28;20818;-77
2022/12/08 06:25:32;;;;;;;7.40;6.70;;;3.30;99.90;;;;;;5094543;28;20468;-77
2022/12/08 06:28:00;;;;;;;7.03;5.90;;;3.30;99.90;;;;;;5093314;28;20454;-77
2022/12/08 06:30:28;;;;;;;6.50;5.80;;;3.30;99.90;;;;;;5093135;28;20860;-77
2022/12/08 06:32:56;;;;;;;8.03;7.13;;;3.30;99.90;;;;;;5094616;28;20543;-76
2022/12/08 06:35:24;;;;;;;8.33;6.80;;;3.30;99.90;;;;;;5094702;28;20467;-77
2022/12/08 06:37:52;;;;;;;8.20;7.50;;;3.30;99.90;;;;;;5094674;28;20492;-77
2022/12/08 06:40:20;;;;;;;6.73;6.03;;;3.30;99.90;;;;;;5093006;28;20450;-76
2022/12/08 06:42:50;;;;;;;6.30;5.70;;;3.30;99.90;;;;;;5093001;28;20448;-76
2022/12/08 06:45:18;;;;;;;8.90;7.00;;;3.30;99.90;;;;;;5092802;28;20483;-76
2022/12/08 06:47:46;;;;;;;7.03;6.37;;;3.30;99.90;;;;;;5094174;28;20443;-76
2022/12/08 06:50:14;;;;;;;6.43;5.83;;;3.30;99.90;;;;;;5092773;28;20459;-76
2022/12/08 06:52:44;;;;;;;6.73;6.13;;;3.30;99.90;;;;;;5092930;28;20446;-77
2022/12/08 06:55:29;;;;;;;5.80;5.30;;;3.30;99.90;;;;;;5094172;28;20459;-76
2022/12/08 06:58:20;;;;;;;7.77;6.07;;;3.30;99.90;;;;;;5094006;28;20485;-76
2022/12/08 07:00:48;;;;;;;7.10;6.40;;;3.20;99.90;;;;;;5092738;28;20460;-76
2022/12/08 07:03:16;;;;;;;6.50;5.67;;;3.20;99.90;;;;;;5092641;28;20452;-77
2022/12/08 07:05:44;;;;;;;7.03;6.33;;;3.20;99.90;;;;;;5095638;28;20440;-77
2022/12/08 07:08:12;;;;;;;7.20;6.50;;;3.20;99.90;;;;;;5097438;28;20492;-76
2022/12/08 07:10:40;;;;;;;8.97;6.40;;;3.20;99.90;;;;;;5097959;28;20568;-77
2022/12/08 07:13:08;;;;;;;7.40;6.70;;;3.20;99.90;;;;;;5094530;28;20443;-77
2022/12/08 07:15:38;;;;;;;7.13;6.53;;;3.20;99.90;;;;;;5094383;28;20467;-77
2022/12/08 07:18:06;;;;;;;7.70;6.90;;;3.20;99.90;;;;;;5093003;28;20436;-77
2022/12/08 07:20:34;;;;;;;9.87;7.30;;;3.20;99.90;;;;;;5093671;28;20801;-77
2022/12/08 07:23:02;;;;;;;8.13;6.93;;;3.20;99.90;;;;;;5093864;28;20841;-77
2022/12/08 07:25:30;;;;;;;7.40;6.70;;;3.20;99.90;;;;;;5092279;28;20536;-77
2022/12/08 07:27:58;;;;;;;8.20;6.43;;;3.20;99.90;;;;;;5093482;28;20459;-77
2022/12/08 07:30:26;;;;;;;7.60;6.10;;;3.20;99.90;;;;;;5092241;28;20455;-77
2022/12/08 07:32:56;;;;;;;7.90;7.10;;;3.20;99.90;;;;;;5092259;28;20450;-77
2022/12/08 07:35:24;;;;;;;7.40;6.70;;;3.20;99.90;;;;;;5092097;28;20463;-77
2022/12/08 07:37:52;;;;;;;7.50;6.77;;;3.20;99.90;;;;;;5093470;28;20435;-77
2022/12/08 07:40:22;;;;;;;7.10;6.40;;;3.10;99.90;;;;;;5092044;28;20818;-77
2022/12/08 07:42:50;;;;;;;7.37;6.70;;;3.10;99.90;;;;;;5093402;28;20438;-77
2022/12/08 07:45:18;;;;;;;6.90;6.20;;;3.10;99.90;;;;;;5093190;28;20470;-77
2022/12/08 07:47:46;;;;;;;7.00;6.30;;;3.10;99.90;;;;;;5093516;28;20444;-77
2022/12/08 07:50:16;;;;;;;7.73;6.90;;;3.10;99.90;;;;;;5091987;28;20448;-77
2022/12/08 07:52:44;;;;;;;7.77;6.57;;;3.10;99.90;;;;;;5092085;28;20452;-77
2022/12/08 07:55:12;;;;;;;7.50;6.10;;;3.10;99.90;;;;;;5091886;28;20461;-77
2022/12/08 07:57:40;;;;;;;8.83;6.37;;;3.00;99.90;;;;;;5091895;28;20979;-77
2022/12/08 08:00:10;;;;;;;7.13;6.37;;;3.00;99.90;;;;;;5092894;28;20463;-77
2022/12/08 08:02:39;;;;;;;6.50;5.90;;;3.00;99.90;;;;;;5110983;28;20420;-77
2022/12/08 08:05:08;;;;;;;7.90;6.40;;;3.00;99.90;;;;;;5112007;28;20565;-77
2022/12/08 08:07:38;;;;;;;6.30;5.70;;;3.00;99.90;;;;;;5113675;28;20439;-77
2022/12/08 08:10:08;;;;;;;7.13;6.43;;;3.00;99.90;;;;;;5113752;28;20449;-77
2022/12/08 08:12:36;;;;;;;6.20;5.40;;;3.00;99.90;;;;;;5113615;28;20441;-77
2022/12/08 08:15:07;;;;;;;5.80;5.10;;;3.00;99.90;;;;;;5112045;28;20557;-77
2022/12/08 08:17:35;;;;;;;5.63;4.80;;;3.00;99.90;;;;;;5113411;28;20426;-77
2022/12/08 08:20:06;;;;;;;5.20;4.70;;;3.00;99.90;;;;;;5112039;28;20449;-76
2022/12/08 08:22:36;;;;;;;6.27;4.37;;;3.00;99.90;;;;;;5113353;28;20418;-77
2022/12/08 08:25:06;;;;;;;8.83;4.50;;;3.00;99.90;;;;;;5111889;28;20472;-77
2022/12/08 08:27:34;;;;;;;5.33;4.83;;;3.00;99.90;;;;;;5113264;28;20440;-77
2022/12/08 08:30:02;;;;;;;5.30;4.57;;;3.00;99.90;;;;;;5115883;28;20549;-77
2022/12/08 08:32:33;;;;;;;5.40;4.60;;;3.00;99.90;;;;;;5115908;28;20446;-77
2022/12/08 08:35:01;;;;;;;5.03;4.50;;;3.00;99.90;;;;;;5117614;28;20459;-77
2022/12/08 08:37:29;;;;;;;6.20;4.20;;;3.00;99.90;;;;;;5117262;28;20436;-77
2022/12/08 08:39:57;;;;;;;5.30;4.63;;;3.00;99.90;;;;;;5115786;28;20450;-77
2022/12/08 08:42:27;;;;;;;7.27;4.40;;;3.00;99.90;;;;;;5116969;28;20431;-77
2022/12/08 08:44:56;;;;;;;5.53;4.87;;;3.00;99.90;;;;;;5117012;28;20475;-77
2022/12/08 08:47:24;;;;;;;5.63;4.83;;;3.00;99.90;;;;;;5117498;28;20439;-77
2022/12/08 08:49:52;;;;;;;5.20;4.47;;;3.00;99.90;;;;;;5117042;28;20448;-77
2022/12/08 08:52:20;;;;;;;6.37;4.47;;;2.90;99.90;;;;;;5099668;28;20447;-77
2022/12/08 08:54:48;;;;;;;5.70;4.37;;;3.00;99.90;;;;;;5094957;28;20581;-77
2022/12/08 08:57:18;;;;;;;6.37;4.70;;;2.90;99.90;;;;;;5096295;28;20880;-77
2022/12/08 08:59:55;;;;;;;6.30;4.70;;;2.90;99.90;;;;;;5096164;28;20454;-77
2022/12/08 09:02:23;;;;;;;5.53;4.43;;;2.90;99.90;;;;;;5096173;28;20944;-77
2022/12/08 09:04:52;;;;;;;6.23;4.10;;;2.90;99.90;;;;;;5094671;28;21013;-77
2022/12/08 09:07:22;;;;;;;6.17;4.63;;;2.90;99.90;;;;;;5094820;28;20459;-77
2022/12/08 09:09:51;;;;;;;5.50;4.43;;;2.90;99.90;;;;;;5096406;28;20493;-77
2022/12/08 09:12:25;;;;;;;5.77;4.40;;;2.90;99.90;;;;;;5095987;28;20786;-77
2022/12/08 09:14:54;;;;;;;5.40;4.17;;;2.90;99.90;;;;;;5095737;28;20456;-77
2022/12/08 09:17:23;;;;;;;6.40;4.40;;;2.90;99.90;;;;;;5095843;28;20474;-77
2022/12/08 09:19:51;;;;;;;6.37;5.07;;;2.90;99.90;;;;;;5094632;28;20797;-77
2022/12/08 09:22:20;;;;;;;6.20;4.80;;;2.90;99.90;;;;;;5094610;28;20442;-77
2022/12/08 09:24:48;;;;;;;6.17;4.30;;;2.90;99.90;;;;;;5094351;28;20999;-77
2022/12/08 09:27:16;;;;;;;6.83;4.67;;;2.80;99.90;;;;;;5094444;28;20444;-76
2022/12/08 09:29:44;;;;;;;6.47;4.73;;;2.80;99.90;;;;;;5095944;28;20477;-77
2022/12/08 09:32:14;;;;;;;5.47;4.00;;;2.80;99.90;;;;;;5095500;28;21017;-77
2022/12/08 09:34:42;;;;;;;5.70;4.50;;;2.80;99.90;;;;;;5095937;28;20517;-77
2022/12/08 09:37:17;;;;;;;6.07;4.37;;;2.80;99.90;;;;;;5094301;28;20488;-77
2022/12/08 09:39:46;;;;;;;6.37;4.57;;;2.80;99.90;;;;;;5093610;28;20948;-77
2022/12/08 09:42:25;;;;;;;4.90;4.40;;;2.80;99.90;;;;;;5097783;28;20448;-77
2022/12/08 09:45:02;;;;;;;7.17;5.30;;;2.80;99.90;;;;;;5093943;28;20545;-77
2022/12/08 09:47:36;;;;;;;5.43;4.50;;;2.80;99.90;;;;;;5095779;28;20417;-77
2022/12/08 09:50:11;;;;;;;6.13;4.60;;;2.80;99.90;;;;;;5094123;28;20454;-76
2022/12/08 09:52:44;;;;;;;5.60;4.07;;;2.80;99.90;;;;;;5093997;28;20921;-77
2022/12/08 09:55:22;;;;;;;6.87;4.30;;;2.80;99.90;;;;;;5093835;28;20464;-77
2022/12/08 09:57:57;;;;;;;6.30;4.40;;;2.80;99.90;;;;;;5095461;28;20496;-77
2022/12/08 10:00:26;;;;;;;5.10;4.40;;;2.80;99.90;;;;;;5095007;28;20507;-77
2022/12/08 10:02:58;;;;;;;6.37;4.27;;;2.80;99.90;;;;;;5093686;28;20495;-77
2022/12/08 10:05:28;;;;;;;6.73;4.30;;;2.80;99.90;;;;;;5094806;28;20475;-77
2022/12/08 10:08:06;;;;;;;6.37;4.90;;;2.80;99.90;;;;;;5093831;28;20460;-77
2022/12/08 10:10:41;;;;;;;5.70;4.77;;;2.80;99.90;;;;;;5095106;28;20897;-77
2022/12/08 10:13:21;;;;;;;6.63;5.40;;;2.80;99.90;;;;;;5094876;28;20825;-77
2022/12/08 10:15:58;;;;;;;5.70;4.70;;;2.80;99.90;;;;;;5093648;28;20454;-77
2022/12/08 10:18:31;;;;;;;6.23;5.60;;;2.80;99.90;;;;;;5094791;28;20440;-76
2022/12/08 10:21:12;;;;;;;6.20;4.87;;;2.80;99.90;;;;;;5094637;28;20914;-77
2022/12/08 10:23:42;;;;;;;9.73;6.50;;;2.80;99.90;;;;;;5094035;28;20457;-77
2022/12/08 10:26:14;;;;;;;8.20;6.77;;;2.80;99.90;;;;;;5094831;28;20458;-77
2022/12/08 10:28:43;;;;;;;8.37;5.60;;;2.90;99.90;;;;;;5094580;28;20459;-76
2022/12/08 10:31:16;;;;;;;6.00;5.40;;;2.90;99.90;;;;;;5097029;28;20967;-77
2022/12/08 10:33:48;;;;;;;10.27;6.60;;;2.90;99.90;;;;;;5094650;28;20548;-76
2022/12/08 10:36:16;;;;;;;7.53;6.47;;;2.90;99.90;;;;;;5094701;28;20427;-76
2022/12/08 10:38:44;;;;;;;8.30;5.97;;;2.90;99.90;;;;;;5094270;28;20455;-76
2022/12/08 10:41:16;;;;;;;7.97;6.43;;;2.90;99.90;;;;;;5094339;28;20433;-77
2022/12/08 10:43:48;;;;;;;8.80;6.80;;;3.00;99.90;;;;;;5093208;28;20457;-77
2022/12/08 10:46:18;;;;;;;10.10;7.17;;;3.00;99.90;;;;;;5094126;28;20460;-77
2022/12/08 10:48:53;;;;;;;6.67;5.97;;;3.10;99.90;;;;;;5094405;28;20504;-77
2022/12/08 10:51:28;;;;;;;11.30;7.13;;;3.10;99.90;;;;;;5095014;28;20478;-77
2022/12/08 10:53:56;;;;;;;7.40;5.80;;;3.10;99.90;;;;;;5092712;28;21010;-77
2022/12/08 10:56:27;;;;;;;8.30;6.27;;;3.20;99.90;;;;;;5092630;28;20445;-77
2022/12/08 10:59:17;;;;;;;9.03;7.20;;;3.20;99.90;;;;;;5093935;28;20440;-78
2022/12/08 11:01:47;;;;;;;8.33;6.37;;;3.20;99.90;;;;;;5096445;28;20462;-77
2022/12/08 11:04:19;;;;;;;6.43;4.70;;;3.30;99.90;;;;;;5095630;28;20783;-77
2022/12/08 11:06:49;;;;;;;8.27;5.50;;;3.30;99.90;;;;;;5094382;28;21030;-77
2022/12/08 11:09:36;;;;;;;6.17;5.50;;;3.40;99.90;;;;;;5094750;28;20449;-77
2022/12/08 11:12:12;;;;;;;7.73;5.07;;;3.40;99.90;;;;;;5094928;28;20423;-77
2022/12/08 11:14:49;;;;;;;6.17;4.73;;;3.50;99.90;;;;;;5096538;28;20992;-77
2022/12/08 11:17:24;;;;;;;6.80;5.00;;;3.50;99.90;;;;;;5099048;28;20786;-78
2022/12/08 11:19:59;;;;;;;5.83;3.90;;;3.50;99.90;;;;;;5093954;28;20867;-77
2022/12/08 11:22:32;;;;;;;6.60;4.50;;;3.50;99.90;;;;;;5111360;28;20503;-78
2022/12/08 11:25:09;;;;;;;4.77;4.03;;;3.50;99.90;;;;;;5115489;28;20472;-78
2022/12/08 11:27:39;;;;;;;6.63;4.20;;;3.60;99.90;;;;;;5114914;28;20473;-78
2022/12/08 11:30:14;;;;;;;7.33;3.47;;;3.60;99.90;;;;;;5113422;28;20454;-78
2022/12/08 11:32:45;;;;;;;5.47;4.10;;;3.60;99.90;;;;;;5112983;28;20438;-78
2022/12/08 11:35:22;;;;;;;5.93;3.80;;;3.70;99.90;;;;;;5115144;28;20458;-78
2022/12/08 11:37:50;;;;;;;6.13;3.87;;;3.70;99.90;;;;;;5112972;28;20454;-77
2022/12/08 11:40:24;;;;;;;6.47;3.80;;;3.70;99.90;;;;;;5114351;28;20446;-77
2022/12/08 11:43:02;;;;;;;5.60;4.30;;;3.80;99.90;;;;;;5112527;28;20960;-78
2022/12/08 11:45:35;;;;;;;4.73;3.77;;;3.80;99.90;;;;;;5112426;28;20815;-76
2022/12/08 11:48:11;;;;;;;5.80;3.53;;;3.90;99.90;;;;;;5114028;28;20462;-77
2022/12/08 11:50:45;;;;;;;5.83;4.00;;;3.90;99.90;;;;;;5112402;28;20439;-77
2022/12/08 11:53:24;;;;;;;5.87;3.77;;;3.90;99.90;;;;;;5114318;28;20997;-77
2022/12/08 11:55:57;;;;;;;4.97;3.73;;;3.90;99.90;;;;;;5113949;28;20424;-77
2022/12/08 11:58:31;;;;;;;5.53;4.30;;;3.90;99.90;;;;;;5114229;28;20423;-77
2022/12/08 12:01:00;;;;;;;7.83;3.87;;;4.00;99.90;;;;;;5113510;28;20815;-77
2022/12/08 12:03:33;;;;;;;5.83;4.47;;;4.00;99.90;;;;;;5113943;28;20435;-77
2022/12/08 12:06:42;;;;;;;6.03;5.13;;;4.00;99.90;;;;;;5117840;28;20926;-77
2022/12/08 12:09:37;;;;;;;5.50;3.97;;;4.00;99.90;;;;;;5117845;28;20442;-77
2022/12/08 12:12:15;;;;;;;4.90;4.03;;;4.00;99.90;;;;;;5102705;28;20850;-77
2022/12/08 12:15:07;;;;;;;5.67;3.93;;;4.00;99.90;;;;;;5097090;28;21006;-77
2022/12/08 12:17:43;;;;;;;6.53;5.13;;;4.00;99.90;;;;;;5092315;28;20538;-77
2022/12/08 12:20:17;;;;;;;5.90;4.03;;;4.00;99.90;;;;;;5095715;28;20542;-77
2022/12/08 12:22:51;;;;;;;6.70;4.27;;;4.10;99.90;;;;;;5096252;28;20436;-77
2022/12/08 12:25:22;;;;;;;5.27;4.10;;;4.10;99.90;;;;;;5097082;28;20456;-77
2022/12/08 12:27:53;;;;;;;5.90;4.70;;;4.10;99.90;;;;;;5095446;28;20813;-77
2022/12/08 12:30:26;;;;;;;5.50;4.20;;;4.10;99.90;;;;;;5097399;28;20775;-77
2022/12/08 12:32:58;;;;;;;6.33;4.10;;;4.10;99.90;;;;;;5097033;28;20428;-77
2022/12/08 12:35:32;;;;;;;8.90;3.90;;;4.20;99.90;;;;;;5096729;28;20481;-77
2022/12/08 12:38:59;;;;;;;6.90;4.10;;;4.10;99.90;;;;;;5095381;28;20488;-77
2022/12/08 12:41:00;;;;;;;6.20;4.93;;;4.20;99.90;;;;;;5096527;28;20800;-77
2022/12/08 12:43:31;;;;;;;6.43;4.37;;;4.20;99.90;;;;;;5097054;28;20423;-77
2022/12/08 12:46:38;;;;;;;6.37;4.03;;;4.20;99.90;;;;;;5095161;28;20440;-77
2022/12/08 12:49:44;;;;;;;4.47;3.10;;;4.20;99.90;;;;;;5096687;28;20440;-77
2022/12/08 12:52:49;;;;;;;4.90;3.27;;;4.30;99.90;;;;;;5095108;28;20451;-77
2022/12/08 12:55:42;;;;;;;7.00;3.80;;;4.30;99.90;;;;;;5096117;28;20969;-77
2022/12/08 12:58:36;;;;;;;4.47;3.10;;;4.30;99.90;;;;;;5094321;28;20436;-77
2022/12/08 13:01:42;;;;;;;5.40;3.10;;;4.30;99.90;;;;;;5098493;28;20970;-77
2022/12/08 13:04:11;;;;;;;7.40;3.70;;;4.40;99.90;;;;;;5096220;28;20455;-77
2022/12/08 13:06:42;;;;;;;4.97;3.20;;;4.40;99.90;;;;;;5096561;28;20463;-76
2022/12/08 13:09:26;;;;;;;6.17;4.47;;;4.40;99.90;;;;;;5094826;28;20987;-77
2022/12/08 13:11:58;;;;;;;6.23;4.07;;;4.40;99.90;;;;;;5094693;28;20448;-77
2022/12/08 13:14:34;;;;;;;6.40;4.10;;;4.40;99.90;;;;;;5095070;28;20506;-77
2022/12/08 13:17:08;;;;;;;5.00;3.73;;;4.40;99.90;;;;;;5096102;28;20420;-77
2022/12/08 13:19:38;;;;;;;6.33;4.10;;;4.40;99.90;;;;;;5094566;28;20448;-77
2022/12/08 13:22:39;;;;;;;6.17;3.70;;;4.40;99.90;;;;;;5095827;28;20427;-77
2022/12/08 13:25:46;;;;;;;6.10;4.00;;;4.40;99.90;;;;;;5095727;28;20474;-77
2022/12/08 13:28:22;;;;;;;5.77;3.57;;;4.40;99.90;;;;;;5094567;28;20471;-77